Time;durP1;ratioP1;P1;durP2;ratioP2;P2;SDS_P1;SDS_P2;PMS_P1;PMS_P2;Temp;Humidity;BMP_temperature;BMP_pressure;BME280_temperature;BME280_humidity;BME280_pressure;Samples;Min_cycle;Max_cycle;Signal;HPM_P1;HPM_P2
2021/11/12 00:13:44;;;;;;;22.38;4.82;;;;;;;12.69;79.57;99935.22;5048409;28;20090;-79
2021/11/12 00:16:11;;;;;;;19.92;4.38;;;;;;;12.66;79.63;99926.84;5050961;28;20044;-79
2021/11/12 00:18:39;;;;;;;35.13;5.63;;;;;;;12.60;79.55;99918.03;5053517;28;20043;-79
2021/11/12 00:21:07;;;;;;;20.13;4.28;;;;;;;12.53;79.68;99906.88;5053616;28;20076;-79
2021/11/12 00:23:35;;;;;;;24.48;5.90;;;;;;;12.45;79.78;99915.47;5036261;28;20506;-79
2021/11/12 00:26:02;;;;;;;20.83;4.70;;;;;;;12.40;79.82;99908.28;5033881;28;20086;-80
2021/11/12 00:28:36;;;;;;;36.95;6.57;;;;;;;12.34;80.02;99909.78;5035808;28;20485;-79
2021/11/12 00:36:44;;;;;;;32.58;5.45;;;;;;;12.21;80.13;99912.00;5018996;28;20060;-79
2021/11/12 00:42:46;;;;;;;24.98;5.38;;;;;;;12.16;80.34;99897.66;5027898;28;20131;-79
2021/11/12 00:47:39;;;;;;;22.73;5.30;;;;;;;12.13;80.34;99870.66;5055168;28;20127;-79
2021/11/12 00:55:26;;;;;;;26.08;6.60;;;;;;;12.14;80.41;99869.50;5054015;28;20041;-79
2021/11/12 00:57:54;;;;;;;25.33;4.78;;;;;;;12.14;80.45;99861.97;5038058;28;20048;-80
2021/11/12 01:00:23;;;;;;;27.75;5.20;;;;;;;12.12;80.40;99857.97;5054382;28;20136;-79
2021/11/12 01:02:50;;;;;;;24.08;5.28;;;;;;;12.11;80.45;99854.41;5055160;28;20106;-79
2021/11/12 01:05:17;;;;;;;18.55;4.20;;;;;;;12.09;80.41;99848.44;5039503;28;20035;-80
2021/11/12 01:07:45;;;;;;;36.45;6.07;;;;;;;12.08;80.42;99846.03;5038697;28;20067;-79
2021/11/12 01:10:14;;;;;;;26.58;7.07;;;;;;;12.07;80.25;99850.00;5034565;28;20045;-80
2021/11/12 01:12:42;;;;;;;21.20;5.72;;;;;;;12.06;80.18;99848.38;5038484;28;20049;-79
2021/11/12 01:15:12;;;;;;;25.83;7.78;;;;;;;12.04;80.14;99840.44;5035060;28;20036;-79
2021/11/12 01:17:40;;;;;;;32.03;7.60;;;;;;;12.05;80.03;99824.56;5056406;28;20160;-80
2021/11/12 01:20:08;;;;;;;25.17;5.10;;;;;;;12.06;79.80;99823.41;5058626;28;20111;-79
2021/11/12 01:22:35;;;;;;;29.27;4.85;;;;;;;12.07;79.83;99827.81;5038141;28;20051;-80
2021/11/12 01:25:05;;;;;;;29.98;6.60;;;;;;;12.06;79.68;99820.63;5055695;28;20781;-79
2021/11/12 01:27:34;;;;;;;34.83;6.03;;;;;;;12.06;79.49;99817.88;5037493;28;20124;-80
2021/11/12 01:30:02;;;;;;;22.38;6.55;;;;;;;12.05;78.98;99819.03;5055856;28;20128;-79
2021/11/12 01:32:30;;;;;;;34.97;6.63;;;;;;;12.05;79.08;99819.84;5055163;28;20033;-79
2021/11/12 01:35:00;;;;;;;29.92;5.10;;;;;;;12.02;78.65;99812.25;5037049;28;20044;-79
2021/11/12 01:37:29;;;;;;;23.20;5.05;;;;;;;12.00;78.87;99822.13;5054676;28;20060;-79
2021/11/12 01:40:00;;;;;;;16.80;3.80;;;;;;;11.99;78.76;99823.34;5036195;28;20056;-80
2021/11/12 01:43:14;;;;;;;20.02;4.25;;;;;;;12.00;78.11;99819.38;5050830;28;20045;-79
2021/11/12 01:54:41;;;;;;;23.50;5.45;;;;;;;12.08;77.99;99807.19;5056068;28;20040;-79
2021/11/12 01:56:44;;;;;;;31.00;6.45;;;;;;;12.08;77.59;99787.75;5049474;28;20114;-79
2021/11/12 01:59:15;;;;;;;24.75;4.78;;;;;;;12.07;78.08;99777.84;5055734;28;20488;-80
2021/11/12 02:01:49;;;;;;;24.98;5.15;;;;;;;12.06;77.80;99776.25;5054472;28;20140;-80
2021/11/12 02:04:23;;;;;;;28.67;5.28;;;;;;;12.02;77.73;99773.44;5054660;28;20048;-79
2021/11/12 02:06:50;;;;;;;38.05;6.60;;;;;;;12.04;77.86;99773.88;5037132;28;20048;-79
2021/11/12 02:09:20;;;;;;;37.40;6.70;;;;;;;12.02;77.70;99775.44;5036824;28;20422;-79
2021/11/12 02:11:51;;;;;;;33.92;6.72;;;;;;;11.99;77.33;99759.53;5057263;28;20150;-79
2021/11/12 02:14:20;;;;;;;23.07;6.10;;;;;;;11.95;77.88;99762.25;5034034;28;20112;-79
2021/11/12 02:16:57;;;;;;;27.67;5.93;;;;;;;11.91;77.47;99769.75;5051441;28;20052;-79
2021/11/12 02:19:24;;;;;;;25.90;6.47;;;;;;;11.90;77.64;99770.09;5055728;28;20068;-79
2021/11/12 02:22:22;;;;;;;23.70;4.60;;;;;;;11.87;77.77;99781.94;5017061;28;20072;-79
2021/11/12 02:24:56;;;;;;;27.05;4.53;;;;;;;11.86;77.56;99772.81;5031267;28;20461;-79
2021/11/12 02:27:28;;;;;;;20.30;4.60;;;;;;;11.86;77.74;99769.28;5053864;28;20045;-79
2021/11/12 02:29:57;;;;;;;26.13;4.35;;;;;;;11.86;77.35;99783.16;5037294;28;20045;-79
2021/11/12 02:32:29;;;;;;;27.98;4.18;;;;;;;11.85;77.37;99779.56;5055314;28;20033;-79
2021/11/12 02:35:02;;;;;;;26.70;5.75;;;;;;;11.84;76.96;99772.41;5055874;28;20056;-79
2021/11/12 02:37:31;;;;;;;29.98;4.65;;;;;;;11.84;77.21;99777.97;5052331;28;20061;-79
2021/11/12 02:39:58;;;;;;;23.42;4.82;;;;;;;11.84;77.07;99779.94;5051805;28;20080;-79
2021/11/12 02:42:26;;;;;;;21.23;5.63;;;;;;;11.85;77.01;99768.47;5034417;28;20037;-79
2021/11/12 02:44:53;;;;;;;26.40;5.38;;;;;;;11.83;77.15;99756.97;5055390;28;20613;-79
2021/11/12 02:47:21;;;;;;;20.17;4.32;;;;;;;11.81;76.81;99750.19;5035204;28;20164;-79
2021/11/12 02:49:48;;;;;;;25.70;5.18;;;;;;;11.82;76.86;99760.91;5054720;28;20452;-79
2021/11/12 02:52:18;;;;;;;20.17;4.63;;;;;;;11.84;76.85;99757.75;5055692;28;20033;-79
2021/11/12 02:54:48;;;;;;;24.15;4.97;;;;;;;11.82;77.07;99747.03;5052933;28;20033;-79
2021/11/12 02:57:16;;;;;;;27.23;5.30;;;;;;;11.84;76.85;99732.78;5035427;28;20036;-79
2021/11/12 02:59:43;;;;;;;34.38;6.35;;;;;;;11.84;76.65;99730.00;5050718;28;20119;-79
2021/11/12 03:02:10;;;;;;;20.02;4.80;;;;;;;11.82;76.89;99729.59;5054001;28;20214;-79
2021/11/12 03:04:38;;;;;;;30.67;5.93;;;;;;;11.80;76.88;99718.09;5052376;28;20032;-79
2021/11/12 03:07:05;;;;;;;35.53;6.78;;;;;;;11.80;76.70;99715.31;5037144;28;20787;-79
2021/11/12 03:09:33;;;;;;;26.65;4.78;;;;;;;11.80;76.69;99710.56;5036224;28;21937;-79
2021/11/12 03:12:03;;;;;;;26.02;7.13;;;;;;;11.81;76.81;99714.16;5053876;28;20045;-79
2021/11/12 03:14:30;;;;;;;25.35;4.40;;;;;;;11.79;76.90;99722.03;5051381;28;20110;-79
2021/11/12 03:16:57;;;;;;;31.58;7.10;;;;;;;11.77;77.04;99713.28;5052869;28;20170;-79
2021/11/12 03:19:27;;;;;;;20.08;4.85;;;;;;;11.75;77.46;99715.66;5054730;28;20037;-79
2021/11/12 03:22:00;;;;;;;28.48;5.88;;;;;;;11.74;77.63;99714.06;5035959;28;20396;-79
2021/11/12 03:24:34;;;;;;;35.08;6.88;;;;;;;11.73;77.56;99704.16;5053688;28;20116;-79
2021/11/12 04:00:31;;;;;;;24.13;7.70;;;;;;;11.76;77.85;99672.88;5053343;28;20163;-79
2021/11/12 04:02:42;;;;;;;29.00;5.50;;;;;;;11.78;77.85;99676.84;5044153;28;20102;-79
2021/11/12 05:44:37;;;;;;;20.30;3.80;;;;;;;11.36;76.39;99605.06;5056725;28;20088;-79
2021/11/12 05:49:49;;;;;;;19.00;4.07;;;;;;;11.32;76.70;99608.97;5053962;28;20075;-79
2021/11/12 05:55:04;;;;;;;19.38;4.60;;;;;;;11.31;76.78;99612.91;5035062;28;20037;-79
2021/11/12 05:57:30;;;;;;;19.27;4.78;;;;;;;11.29;76.61;99615.28;5053472;28;20055;-79
2021/11/12 05:59:57;;;;;;;22.33;4.15;;;;;;;11.28;76.58;99610.91;5036022;28;20128;-78
2021/11/12 06:02:24;;;;;;;24.27;4.10;;;;;;;11.24;76.88;99605.31;5054928;28;20084;-79
2021/11/12 06:04:51;;;;;;;15.70;4.13;;;;;;;11.22;76.95;99599.38;5052902;28;20051;-78
2021/11/12 06:07:19;;;;;;;14.27;4.05;;;;;;;11.26;76.90;99604.94;5053813;28;20388;-79
2021/11/12 06:09:46;;;;;;;15.35;2.58;;;;;;;11.25;76.85;99593.06;5037665;28;20044;-79
2021/11/12 06:12:13;;;;;;;15.57;3.67;;;;;;;11.27;77.05;99596.25;5056141;28;20032;-79
2021/11/12 06:14:41;;;;;;;14.65;3.63;;;;;;;11.29;77.00;99588.38;5052612;28;20071;-79
2021/11/12 06:17:09;;;;;;;15.57;3.25;;;;;;;11.27;77.10;99590.72;5054368;28;20677;-78
2021/11/12 06:19:36;;;;;;;18.08;4.00;;;;;;;11.28;76.92;99586.00;5055200;28;20056;-79
2021/11/12 06:22:03;;;;;;;15.80;3.45;;;;;;;11.26;77.07;99572.50;5037126;28;20047;-79
2021/11/12 06:24:31;;;;;;;9.98;3.03;;;;;;;11.21;77.33;99569.25;5054008;28;20040;-79
2021/11/12 06:26:57;;;;;;;12.50;3.28;;;;;;;11.21;77.30;99581.16;5054757;28;20079;-78
2021/11/12 06:29:24;;;;;;;13.75;3.08;;;;;;;11.21;77.44;99581.16;5056409;28;20032;-79
2021/11/12 06:31:52;;;;;;;15.10;3.30;;;;;;;11.18;77.80;99576.34;5053360;28;20094;-78
2021/11/12 06:34:19;;;;;;;20.17;3.28;;;;;;;11.16;77.87;99578.72;5036929;28;20045;-79
2021/11/12 06:36:46;;;;;;;21.15;4.25;;;;;;;11.16;77.92;99578.72;5053423;28;20113;-79
2021/11/12 06:39:14;;;;;;;24.00;3.53;;;;;;;11.16;77.89;99570.41;5051853;28;20040;-79
2021/11/12 06:52:31;;;;;;;10.60;3.85;;;;;;;11.19;77.97;99550.25;5034309;28;20094;-79
2021/11/12 06:55:01;;;;;;;14.07;3.97;;;;;;;11.18;77.57;99551.41;5052682;28;20108;-79
2021/11/12 06:57:28;;;;;;;22.85;2.72;;;;;;;11.19;77.58;99560.53;5032655;28;20132;-79
2021/11/12 06:59:55;;;;;;;15.35;2.45;;;;;;;11.19;77.66;99566.88;5054715;28;20049;-79
2021/11/12 07:02:24;;;;;;;15.48;2.60;;;;;;;11.19;77.74;99553.03;5032987;28;20117;-79
2021/11/12 07:04:52;;;;;;;10.95;2.42;;;;;;;11.19;77.67;99549.44;5054033;28;20106;-79
2021/11/12 07:07:19;;;;;;;18.17;2.63;;;;;;;11.21;77.72;99542.34;5033314;28;20420;-79
2021/11/12 07:09:49;;;;;;;12.88;2.67;;;;;;;11.21;77.67;99542.34;5053040;28;20063;-79
2021/11/12 07:12:16;;;;;;;16.25;3.33;;;;;;;11.22;78.08;99538.44;5055552;28;20082;-79
2021/11/12 07:14:44;;;;;;;13.43;2.88;;;;;;;11.22;77.72;99546.72;5049780;28;20049;-79
2021/11/12 07:17:12;;;;;;;13.05;3.60;;;;;;;11.20;77.74;99545.53;5051788;28;20034;-79
2021/11/12 07:19:40;;;;;;;11.98;2.88;;;;;;;11.18;78.05;99545.88;5052910;28;20076;-78
2021/11/12 07:22:08;;;;;;;18.27;3.08;;;;;;;11.21;78.11;99547.91;5037011;28;20127;-78
2021/11/12 07:24:35;;;;;;;18.45;3.30;;;;;;;11.21;78.18;99547.91;5035633;28;20481;-79
2021/11/12 07:27:04;;;;;;;19.67;3.03;;;;;;;11.20;78.21;99557.38;5052879;28;20044;-78
2021/11/12 07:29:33;;;;;;;15.07;2.20;;;;;;;11.20;78.42;99557.38;5050362;28;20552;-79
2021/11/12 07:32:00;;;;;;;17.92;3.15;;;;;;;11.22;78.44;99538.44;5033852;28;20431;-79
2021/11/12 07:34:29;;;;;;;18.90;3.97;;;;;;;11.22;78.49;99545.94;5037980;28;20063;-79
2021/11/12 07:37:04;;;;;;;11.82;2.78;;;;;;;11.19;78.46;99536.41;5037677;28;20036;-79
2021/11/12 07:45:03;;;;;;;10.35;2.35;;;;;;;11.13;79.13;99535.13;5055454;28;20128;-79
2021/11/12 07:47:30;;;;;;;15.50;4.13;;;;;;;11.13;79.34;99540.69;5032007;28;20037;-79
2021/11/12 07:50:00;;;;;;;15.05;2.55;;;;;;;11.14;79.50;99547.81;5055249;28;20069;-79
2021/11/12 07:52:31;;;;;;;12.80;2.55;;;;;;;11.15;79.62;99543.06;5054217;28;20111;-79
2021/11/12 07:55:00;;;;;;;11.52;2.13;;;;;;;11.13;80.10;99524.06;5053745;28;20641;-79
2021/11/12 07:57:27;;;;;;;14.07;4.10;;;;;;;11.14;79.99;99535.94;5054503;28;20032;-79
2021/11/12 07:59:55;;;;;;;11.60;2.00;;;;;;;11.12;80.40;99533.53;5053203;28;20037;-79
2021/11/12 08:02:24;;;;;;;23.20;2.80;;;;;;;11.14;80.08;99525.66;5038186;28;20140;-79
2021/11/12 08:04:58;;;;;;;8.05;1.80;;;;;;;11.15;80.38;99521.69;5017460;28;20066;-79
2021/11/12 08:07:27;;;;;;;9.35;1.63;;;;;;;11.15;80.62;99527.25;5033371;28;20040;-79
2021/11/12 08:09:58;;;;;;;7.68;1.50;;;;;;;11.15;80.58;99513.38;5033971;28;20079;-79
2021/11/12 08:12:39;;;;;;;7.97;1.40;;;;;;;11.16;80.54;99520.53;5043992;28;20055;-80
2021/11/12 08:21:03;;;;;;;5.55;1.83;;;;;;;11.16;80.79;99531.63;5058106;28;20065;-80
2021/11/12 08:24:02;;;;;;;;;;;;;;;11.12;81.54;99522.44;5055719;28;20048;-79
2021/11/12 08:29:24;;;;;;;6.63;1.10;;;;;;;11.16;80.70;99534.38;5061879;28;20047;-79
2021/11/12 08:37:54;;;;;;;5.57;1.02;;;;;;;11.20;81.02;99540.75;5053457;28;20037;-80
2021/11/12 08:40:08;;;;;;;11.27;1.00;;;;;;;11.25;81.22;99537.63;5044320;28;20161;-79
2021/11/12 08:45:30;;;;;;;5.95;2.00;;;;;;;11.32;81.13;99534.97;5052071;28;20494;-79
2021/11/12 08:47:59;;;;;;;3.70;1.20;;;;;;;11.33;81.26;99531.00;5033818;28;20136;-80
2021/11/12 08:50:26;;;;;;;3.05;0.60;;;;;;;11.38;81.14;99550.09;5033377;28;20044;-80
2021/11/12 08:53:05;;;;;;;8.55;1.25;;;;;;;11.43;81.37;99549.75;5052720;28;20130;-80
2021/11/12 08:55:33;;;;;;;6.20;0.47;;;;;;;11.50;81.44;99522.09;5052958;28;20106;-79
2021/11/12 08:58:02;;;;;;;3.00;0.95;;;;;;;11.52;81.09;99527.25;5053780;28;20060;-81
2021/11/12 09:00:31;;;;;;;2.25;0.75;;;;;;;11.58;81.26;99520.19;5033551;28;20822;-79
2021/11/12 09:02:58;;;;;;;4.85;0.65;;;;;;;11.61;81.27;99534.09;5029542;28;20664;-79
2021/11/12 09:05:26;;;;;;;6.85;0.65;;;;;;;11.66;81.21;99509.94;5046711;28;20040;-79
2021/11/12 09:07:54;;;;;;;4.82;0.77;;;;;;;11.69;80.82;99528.63;5053057;28;20121;-80
2021/11/12 09:10:23;;;;;;;3.63;0.50;;;;;;;11.71;81.11;99521.53;5056617;28;20048;-79
2021/11/12 09:12:58;;;;;;;1.75;0.40;;;;;;;11.71;81.28;99523.50;5050714;28;22045;-79
2021/11/12 09:15:30;;;;;;;1.65;0.43;;;;;;;11.66;81.53;99523.81;5052827;28;20077;-79
2021/11/12 09:18:00;;;;;;;4.67;0.50;;;;;;;11.63;81.79;99515.09;5054611;28;20031;-80
2021/11/12 09:20:28;;;;;;;2.58;0.55;;;;;;;11.62;81.75;99523.78;5061252;28;20301;-79
2021/11/12 09:22:57;;;;;;;4.47;0.57;;;;;;;11.60;82.04;99507.53;5043484;28;20071;-79
2021/11/12 09:25:25;;;;;;;1.70;0.50;;;;;;;11.62;82.33;99519.03;5059168;28;20040;-81
2021/11/12 09:27:52;;;;;;;1.50;0.40;;;;;;;11.64;82.69;99526.97;5058923;28;20064;-81
2021/11/12 09:30:22;;;;;;;5.38;0.50;;;;;;;11.68;82.59;99538.88;5018180;28;20495;-81
2021/11/12 09:32:54;;;;;;;1.95;0.20;;;;;;;11.72;83.08;99538.97;5048424;28;20123;-82
2021/11/12 09:35:23;;;;;;;1.25;0.57;;;;;;;11.72;83.26;99538.97;5056666;28;20043;-82
2021/11/12 09:37:50;;;;;;;1.17;0.38;;;;;;;11.68;83.17;99532.53;5058858;28;20158;-83
2021/11/12 09:40:18;;;;;;;1.85;0.35;;;;;;;11.70;83.59;99539.34;5062140;28;20036;-83
2021/11/12 09:42:45;;;;;;;0.57;0.45;;;;;;;11.67;83.73;99526.22;5060613;28;20044;-82
2021/11/12 09:45:12;;;;;;;3.72;0.95;;;;;;;11.66;83.80;99532.94;5057512;28;20181;-82
2021/11/12 09:47:41;;;;;;;2.30;0.40;;;;;;;11.68;83.86;99524.22;5058711;28;20144;-81
2021/11/12 09:50:12;;;;;;;1.35;0.38;;;;;;;11.65;84.29;99517.47;5021024;28;20068;-83
2021/11/12 09:52:43;;;;;;;0.90;0.52;;;;;;;11.65;84.42;99531.31;5057431;28;20068;-81
2021/11/12 09:55:11;;;;;;;2.97;1.17;;;;;;;11.66;84.60;99538.47;5039078;28;20037;-81
2021/11/12 09:57:42;;;;;;;3.50;1.00;;;;;;;11.68;84.58;99527.00;5060777;28;20106;-82
2021/11/12 10:00:13;;;;;;;2.60;0.90;;;;;;;11.72;84.66;99566.69;5052868;28;20120;-83
2021/11/12 10:02:44;;;;;;;2.10;0.50;;;;;;;11.74;84.57;99528.28;5061782;28;20494;-82
2021/11/12 10:05:29;;;;;;;2.88;0.63;;;;;;;11.80;84.52;99524.78;5055100;28;20396;-82
2021/11/12 10:07:56;;;;;;;2.60;0.35;;;;;;;11.82;84.71;99544.59;5034448;28;20539;-81
2021/11/12 10:10:24;;;;;;;1.77;0.32;;;;;;;11.86;84.68;99530.78;5053011;28;20086;-82
2021/11/12 10:12:54;;;;;;;2.85;0.60;;;;;;;11.84;85.00;99524.78;5053099;28;20068;-83
2021/11/12 10:15:30;;;;;;;1.33;0.30;;;;;;;11.85;85.27;99529.16;5054307;28;20032;-82
2021/11/12 10:18:10;;;;;;;1.45;0.45;;;;;;;11.83;85.24;99534.31;5026435;28;20113;-80
2021/11/12 10:20:38;;;;;;;2.30;0.95;;;;;;;11.80;85.63;99530.31;5051031;28;20080;-80
2021/11/12 10:23:16;;;;;;;4.50;1.33;;;;;;;11.80;86.14;99535.88;5052592;28;20051;-83
2021/11/12 10:26:00;;;;;;;4.10;1.00;;;;;;;11.80;86.59;99544.19;5039316;28;20110;-79
2021/11/12 10:28:41;;;;;;;1.95;0.70;;;;;;;11.78;86.58;99545.75;5037534;28;20126;-79
2021/11/12 10:31:17;;;;;;;2.72;0.60;;;;;;;11.75;86.66;99550.09;5054691;28;20054;-79
2021/11/12 10:33:52;;;;;;;3.15;0.73;;;;;;;11.76;86.89;99551.66;5057640;28;20412;-79
2021/11/12 10:36:20;;;;;;;1.85;0.57;;;;;;;11.81;86.71;99556.09;5052702;28;20040;-79
2021/11/12 10:38:49;;;;;;;3.97;1.00;;;;;;;11.82;86.82;99552.13;5035398;28;20484;-79
2021/11/12 10:41:22;;;;;;;5.22;1.00;;;;;;;11.86;87.21;99559.28;5053576;28;20546;-79
2021/11/12 10:43:51;;;;;;;7.68;0.88;;;;;;;11.94;87.36;99546.31;5058089;28;20071;-78
2021/11/12 10:46:38;;;;;;;1.10;0.40;;;;;;;11.99;87.96;99565.34;5035556;28;20493;-79
2021/11/12 10:49:31;;;;;;;6.13;1.25;;;;;;;12.03;87.48;99566.16;5055174;28;20045;-79
2021/11/12 10:52:10;;;;;;;2.65;0.90;;;;;;;12.05;87.09;99577.69;5057869;28;20060;-79
2021/11/12 10:55:06;;;;;;;3.47;0.40;;;;;;;12.06;87.03;99573.72;5053751;28;20510;-79
2021/11/12 10:57:40;;;;;;;2.63;0.77;;;;;;;12.08;87.04;99566.63;5057641;28;20128;-79
2021/11/12 11:00:33;;;;;;;2.78;0.60;;;;;;;12.11;87.93;99570.59;5038696;28;20174;-79
2021/11/12 11:03:06;;;;;;;2.13;0.57;;;;;;;12.15;87.20;99575.00;5053744;28;20114;-82
2021/11/12 11:05:40;;;;;;;2.53;1.45;;;;;;;12.22;87.08;99590.91;5039887;28;20052;-83
2021/11/12 11:08:20;;;;;;;8.07;2.10;;;;;;;12.24;86.94;99588.53;5055812;28;20075;-84
2021/11/12 11:10:54;;;;;;;6.32;0.77;;;;;;;12.26;86.87;99577.84;5057790;28;20041;-80
2021/11/12 11:13:33;;;;;;;1.02;0.50;;;;;;;12.26;87.35;99586.19;5061825;28;20071;-80
2021/11/12 11:16:04;;;;;;;2.47;0.55;;;;;;;12.31;87.50;99591.38;5052719;28;20048;-80
2021/11/12 11:18:41;;;;;;;2.38;0.88;;;;;;;12.42;87.61;99608.09;5060486;28;20025;-80
2021/11/12 11:23:49;;;;;;;1.58;0.40;;;;;;;12.47;87.27;99602.22;5038803;28;20036;-79
2021/11/12 11:26:28;;;;;;;0.52;0.35;;;;;;;12.47;87.33;99619.66;5036856;28;20045;-80
2021/11/12 11:29:02;;;;;;;2.03;0.50;;;;;;;12.45;87.10;99602.59;5052790;28;20063;-80
2021/11/12 11:31:30;;;;;;;4.32;0.77;;;;;;;12.48;86.86;99599.03;5053906;28;20060;-80
2021/11/12 11:33:58;;;;;;;3.38;0.80;;;;;;;12.49;86.83;99611.75;5059565;28;20033;-80
2021/11/12 11:36:28;;;;;;;1.05;0.60;;;;;;;12.55;86.58;99604.63;5039642;28;20116;-80
2021/11/12 11:38:56;;;;;;;1.90;1.02;;;;;;;12.66;86.35;99602.75;5059004;28;20041;-80
2021/11/12 11:41:25;;;;;;;2.15;0.90;;;;;;;12.75;86.05;99619.06;5045582;28;20041;-80
2021/11/12 11:43:54;;;;;;;5.45;0.75;;;;;;;12.77;85.50;99603.59;5040237;28;20103;-80
2021/11/12 11:46:29;;;;;;;4.20;0.95;;;;;;;12.81;85.37;99612.75;5036436;28;20049;-80
2021/11/12 11:48:58;;;;;;;3.35;0.93;;;;;;;12.90;84.77;99614.38;5042957;28;20828;-80
2021/11/12 11:51:46;;;;;;;3.75;0.88;;;;;;;12.98;83.98;99614.03;5057696;28;20049;-80
2021/11/12 11:54:13;;;;;;;1.73;0.80;;;;;;;13.13;83.85;99612.94;5041587;28;20036;-80
2021/11/12 11:56:52;;;;;;;3.08;1.15;;;;;;;13.20;81.99;99624.13;5058100;28;20048;-80
2021/11/12 11:59:24;;;;;;;3.97;1.08;;;;;;;13.23;82.40;99611.44;5035906;28;20073;-80
2021/11/12 12:01:52;;;;;;;4.00;1.77;;;;;;;13.23;82.42;99616.97;5036990;28;20055;-80
2021/11/12 12:04:19;;;;;;;6.65;1.42;;;;;;;13.22;82.40;99615.38;5058773;28;20432;-80
2021/11/12 12:07:01;;;;;;;4.57;1.80;;;;;;;13.22;81.51;99621.75;5053090;28;20068;-80
2021/11/12 12:09:49;;;;;;;3.95;0.90;;;;;;;13.19;81.46;99618.94;5036014;28;20064;-80
2021/11/12 12:12:31;;;;;;;6.15;0.77;;;;;;;13.09;81.41;99628.81;5040843;28;20047;-80
2021/11/12 12:15:21;;;;;;;7.05;1.45;;;;;;;13.17;81.85;99635.22;5059859;28;20090;-80
2021/11/12 12:18:05;;;;;;;4.80;1.00;;;;;;;13.26;81.88;99638.44;5043582;28;20499;-80
2021/11/12 12:21:02;;;;;;;6.65;0.82;;;;;;;13.34;81.86;99635.28;5056337;28;20060;-80
2021/11/12 13:25:52;;;;;;;2.63;0.50;;;;;;;13.34;80.00;99706.78;5057656;28;20055;-79
2021/11/12 13:28:40;;;;;;;6.00;1.10;;;;;;;13.38;79.35;99699.25;5050536;28;20086;-80
2021/11/12 13:31:18;;;;;;;2.03;0.70;;;;;;;13.40;79.45;99682.97;5050523;28;20032;-80
2021/11/12 13:33:54;;;;;;;2.30;0.57;;;;;;;13.43;79.49;99690.53;5039055;28;20631;-80
2021/11/12 13:36:37;;;;;;;2.88;0.95;;;;;;;13.45;79.38;99702.06;5054558;28;20076;-80
2021/11/12 13:39:11;;;;;;;5.05;0.77;;;;;;;13.52;79.51;99712.44;5056560;28;20496;-80
2021/11/12 13:41:41;;;;;;;4.88;0.80;;;;;;;13.58;79.13;99710.88;5032689;28;20048;-79
2021/11/12 13:44:10;;;;;;;4.50;1.60;;;;;;;13.63;79.01;99711.31;5032875;28;20124;-81
2021/11/12 13:47:03;;;;;;;2.97;1.58;;;;;;;13.60;78.51;99714.88;5048755;28;20061;-80
2021/11/12 13:49:45;;;;;;;1.92;0.70;;;;;;;13.55;78.84;99711.66;5059424;28;20036;-79
2021/11/12 13:52:17;;;;;;;1.88;0.70;;;;;;;13.55;78.92;99712.47;5039585;28;20044;-80
2021/11/12 13:54:50;;;;;;;3.25;1.08;;;;;;;13.53;79.06;99728.72;5055827;28;20037;-80
2021/11/12 13:57:24;;;;;;;5.78;1.52;;;;;;;13.69;79.14;99731.16;5040523;28;20769;-80
2021/11/12 14:00:10;;;;;;;4.85;0.90;;;;;;;13.83;78.87;99742.38;5053075;28;20106;-80
2021/11/12 14:03:08;;;;;;;4.38;0.90;;;;;;;13.82;79.04;99744.34;5040440;28;20064;-80
2021/11/12 14:05:38;;;;;;;3.63;1.40;;;;;;;13.69;79.66;99757.00;5057351;28;21093;-80
2021/11/12 14:08:09;;;;;;;3.22;1.50;;;;;;;13.59;79.86;99763.31;5059544;28;20559;-79
2021/11/12 14:10:51;;;;;;;4.82;1.83;;;;;;;13.44;80.59;99770.00;5058275;28;20144;-79
2021/11/12 14:13:21;;;;;;;3.13;1.20;;;;;;;13.35;80.68;99770.31;5056566;28;20107;-79
2021/11/12 14:16:23;;;;;;;6.00;1.33;;;;;;;13.39;80.92;99770.38;5058473;28;20040;-79
2021/11/12 14:21:52;;;;;;;4.30;2.47;;;;;;;13.46;80.56;99792.63;5061662;28;20060;-79
2021/11/12 14:40:18;;;;;;;2.50;0.60;;;;;;;13.30;77.82;99800.47;5055757;28;20090;-79
2021/11/12 14:45:37;;;;;;;2.80;1.10;;;;;;;13.28;77.33;99819.53;5051034;28;20118;-79
2021/11/12 14:48:23;;;;;;;5.80;0.90;;;;;;;13.22;76.30;99818.28;5063745;28;20385;-79
2021/11/12 14:53:36;;;;;;;2.63;0.95;;;;;;;13.16;75.47;99831.72;5053157;28;20115;-79
2021/11/12 14:56:11;;;;;;;3.33;0.60;;;;;;;13.18;75.87;99842.47;5040322;28;20582;-79
2021/11/12 14:58:41;;;;;;;3.80;1.33;;;;;;;13.14;75.36;99836.88;5063060;28;20183;-80
2021/11/12 15:01:21;;;;;;;1.58;0.35;;;;;;;13.09;74.82;99842.78;5041887;28;20127;-79
2021/11/12 15:03:51;;;;;;;1.83;0.63;;;;;;;13.09;74.82;99844.78;5058576;28;20519;-79
2021/11/12 15:06:20;;;;;;;1.20;0.63;;;;;;;13.14;74.66;99855.53;5059909;28;20028;-81
2021/11/12 15:11:21;;;;;;;4.53;0.70;;;;;;;13.22;74.37;99876.66;5058441;28;20044;-81
2021/11/12 15:13:49;;;;;;;3.20;0.60;;;;;;;13.25;73.94;99882.25;5035926;28;20090;-81
2021/11/12 15:18:51;;;;;;;1.45;0.90;;;;;;;13.24;73.16;99879.84;5055408;28;20127;-82
2021/11/12 15:21:23;;;;;;;1.00;0.70;;;;;;;13.17;72.75;99897.25;5051709;28;20064;-81
2021/11/12 15:24:03;;;;;;;2.67;0.50;;;;;;;13.15;72.54;99876.59;5051170;28;20062;-81
2021/11/12 15:29:33;;;;;;;3.33;0.55;;;;;;;13.11;71.98;99897.97;4975906;28;20070;-82
2021/11/12 15:32:09;;;;;;;4.35;1.13;;;;;;;13.09;71.98;99897.56;5032480;28;20128;-82
2021/11/12 15:35:01;;;;;;;4.35;0.70;;;;;;;13.10;71.78;99913.06;5043255;28;20035;-83
2021/11/12 15:37:44;;;;;;;2.03;0.47;;;;;;;13.07;71.86;99908.28;5060594;28;20039;-82
2021/11/12 15:45:39;;;;;;;3.70;2.15;;;;;;;13.01;71.55;99921.69;5038703;28;20059;-81
2021/11/12 15:48:22;;;;;;;6.25;1.00;;;;;;;12.95;71.54;99919.63;5027878;28;20075;-82
2021/11/12 15:51:39;;;;;;;6.30;0.75;;;;;;;12.96;72.02;99918.44;5042660;28;20079;-82
2021/11/12 16:26:10;;;;;;;7.10;2.33;;;;;;;12.47;73.02;99969.44;5056182;28;20063;-82
2021/11/12 16:31:19;;;;;;;7.10;2.58;;;;;;;12.41;73.43;99982.06;5060028;28;20033;-82
2021/11/12 16:33:46;;;;;;;8.70;2.15;;;;;;;12.41;73.40;99981.28;5050532;28;20040;-82
2021/11/12 16:36:13;;;;;;;13.65;3.28;;;;;;;12.39;73.34;99989.19;5057440;28;20037;-83
2021/11/12 16:38:40;;;;;;;8.75;2.67;;;;;;;12.37;73.59;99992.31;5057178;28;20396;-82
2021/11/12 17:14:32;;;;;;;6.57;3.15;;;;;;;12.08;75.08;100063.25;5056959;28;20044;-86
2021/11/12 17:52:08;;;;;;;6.50;2.63;;;;;;;11.83;75.76;100163.84;5058825;28;20119;-81
2021/11/12 18:13:11;;;;;;;8.05;2.00;;;;;;;11.69;76.56;100216.25;5056741;28;20033;-77
2021/11/12 21:44:32;;;;;;;4.00;1.42;;;;;;;11.32;79.58;100496.56;5057488;28;20380;-80
2021/11/12 21:46:59;;;;;;;2.10;1.00;;;;;;;11.30;79.52;100503.63;5055937;28;20045;-81
2021/11/12 21:49:26;;;;;;;1.75;0.80;;;;;;;11.30;79.36;100504.44;5048636;28;20049;-81
2021/11/12 21:51:55;;;;;;;1.67;1.00;;;;;;;11.29;79.48;100502.81;5037929;28;20443;-81
2021/11/12 21:54:22;;;;;;;2.00;0.70;;;;;;;11.25;79.56;100518.53;5053412;28;20832;-81
2021/11/12 21:56:49;;;;;;;3.05;1.05;;;;;;;11.22;79.51;100510.94;5031009;28;20061;-81
2021/11/12 21:59:16;;;;;;;1.70;0.75;;;;;;;11.29;79.35;100519.44;5035635;28;20048;-84
2021/11/12 22:01:45;;;;;;;2.70;2.00;;;;;;;11.28;79.42;100528.91;5040647;28;20037;-81
2021/11/12 22:04:12;;;;;;;3.53;1.40;;;;;;;11.32;79.44;100535.38;5052428;28;20048;-82
2021/11/12 22:06:39;;;;;;;1.33;0.95;;;;;;;11.32;79.45;100543.69;5019124;28;20467;-81
2021/11/12 22:09:06;;;;;;;2.65;1.00;;;;;;;11.34;79.81;100557.19;5054375;28;20041;-82
2021/11/12 22:11:32;;;;;;;1.98;0.70;;;;;;;11.34;79.70;100546.91;5037002;28;20049;-93
2021/11/12 22:14:01;;;;;;;4.32;1.27;;;;;;;11.33;80.04;100544.50;5058622;28;20075;-84
2021/11/12 22:16:28;;;;;;;3.47;0.95;;;;;;;11.32;80.00;100540.09;5023069;28;20032;-91
2021/11/12 22:18:55;;;;;;;2.15;0.47;;;;;;;11.30;79.89;100543.25;5039548;28;20072;-82
2021/11/12 22:21:24;;;;;;;1.27;0.90;;;;;;;11.27;79.88;100543.94;5056139;28;20129;-82
2021/11/12 22:23:54;;;;;;;0.50;0.43;;;;;;;11.25;79.66;100529.63;5034565;28;20048;-83
2021/11/12 22:26:22;;;;;;;3.03;0.68;;;;;;;11.25;79.86;100517.75;5052079;28;20040;-81
2021/11/12 22:28:50;;;;;;;2.28;0.57;;;;;;;11.21;79.77;100537.03;5055514;28;20068;-82
2021/11/12 22:31:18;;;;;;;2.83;0.68;;;;;;;11.21;79.89;100512.09;5057037;28;20880;-81
2021/11/12 22:33:45;;;;;;;3.65;1.00;;;;;;;11.16;79.82;100515.13;5050609;28;20036;-81